Time;durP1;ratioP1;P1;durP2;ratioP2;P2;SDS_P1;SDS_P2;PMS_P1;PMS_P2;Temp;Humidity;BMP_temperature;BMP_pressure;BME280_temperature;BME280_humidity;BME280_pressure;Samples;Min_cycle;Max_cycle;Signal;HPM_P1;HPM_P2
2023/10/02 00:02:40;;;;;;;20.33;10.40;;;;;14.30;99221.00;;;;5056533;28;20041;-68
2023/10/02 00:05:07;;;;;;;17.17;9.45;;;;;14.30;99226.00;;;;5055152;28;20045;-68
2023/10/02 00:07:35;;;;;;;17.48;9.82;;;;;14.30;99219.00;;;;5054484;28;20506;-69
2023/10/02 00:10:04;;;;;;;17.20;9.13;;;;;14.40;99208.00;;;;5055627;28;20073;-68
2023/10/02 00:12:32;;;;;;;20.50;9.05;;;;;14.40;99227.00;;;;5055522;28;20099;-69
2023/10/02 00:14:59;;;;;;;16.75;8.93;;;;;14.40;99213.00;;;;5054818;28;20419;-69
2023/10/02 00:17:25;;;;;;;17.75;9.63;;;;;14.40;99226.00;;;;5055413;28;20095;-69
2023/10/02 00:20:12;;;;;;;19.10;9.35;;;;;14.40;99219.00;;;;5055869;28;20132;-68
2023/10/02 00:22:41;;;;;;;17.23;9.20;;;;;14.30;99223.00;;;;5055464;28;20049;-67
2023/10/02 00:25:21;;;;;;;20.40;9.80;;;;;14.30;99215.00;;;;5053732;28;20049;-68
2023/10/02 00:27:54;;;;;;;16.77;8.70;;;;;14.30;99221.00;;;;5055095;28;20041;-68
2023/10/02 00:30:23;;;;;;;15.93;9.27;;;;;14.40;99215.00;;;;5053889;28;20102;-68
2023/10/02 00:32:51;;;;;;;19.85;9.52;;;;;14.40;99223.00;;;;5053777;28;20045;-67
2023/10/02 00:35:22;;;;;;;18.13;9.77;;;;;14.50;99219.00;;;;5054736;28;20045;-69
2023/10/02 00:37:52;;;;;;;18.50;9.15;;;;;14.60;99221.00;;;;5055133;28;20116;-69
2023/10/02 00:40:28;;;;;;;19.42;9.20;;;;;14.50;99212.00;;;;5055140;28;20486;-68
2023/10/02 00:43:33;;;;;;;18.73;9.73;;;;;14.50;99217.00;;;;5053766;28;20052;-68
2023/10/02 00:45:49;;;;;;;18.92;9.50;;;;;14.40;99223.00;;;;5054922;28;20045;-68
2023/10/02 00:48:26;;;;;;;21.90;11.32;;;;;14.50;99220.00;;;;5054891;28;20056;-68
2023/10/02 00:50:55;;;;;;;18.73;10.50;;;;;14.60;99217.00;;;;5055555;28;20051;-68
2023/10/02 00:53:53;;;;;;;22.23;10.77;;;;;14.50;99217.00;;;;5053649;28;20071;-69
2023/10/02 00:56:20;;;;;;;24.40;11.32;;;;;14.40;99218.00;;;;5053460;28;20053;-67
2023/10/02 00:58:58;;;;;;;18.48;9.57;;;;;14.30;99208.00;;;;5054698;28;20071;-69
2023/10/02 01:01:27;;;;;;;20.27;10.13;;;;;14.30;99214.00;;;;5053351;28;20063;-68
2023/10/02 01:04:11;;;;;;;17.67;9.65;;;;;14.40;99217.00;;;;5052701;28;20132;-66
2023/10/02 01:06:54;;;;;;;18.02;9.73;;;;;14.50;99218.00;;;;5054559;28;20136;-69
2023/10/02 01:09:25;;;;;;;18.33;10.00;;;;;14.40;99212.00;;;;5054613;28;20072;-68
2023/10/02 01:11:56;;;;;;;18.25;9.18;;;;;14.30;99212.00;;;;5053052;28;20045;-68
2023/10/02 01:17:17;;;;;;;24.13;9.73;;;;;14.10;99204.00;;;;5054265;28;20102;-69
2023/10/02 01:19:53;;;;;;;17.83;9.45;;;;;14.10;99205.00;;;;5052980;28;20041;-68
2023/10/02 01:22:28;;;;;;;18.10;9.35;;;;;14.20;99211.00;;;;5054136;28;20043;-69
2023/10/02 01:25:13;;;;;;;16.60;9.23;;;;;14.20;99213.00;;;;5052158;28;20068;-68
2023/10/02 01:27:47;;;;;;;15.43;8.98;;;;;14.00;99214.00;;;;5052877;28;20043;-68
2023/10/02 01:30:17;;;;;;;17.40;9.23;;;;;13.90;99210.00;;;;5053919;28;20049;-68
2023/10/02 01:33:12;;;;;;;16.00;8.70;;;;;13.80;99203.00;;;;5053868;28;20677;-67
2023/10/02 01:35:47;;;;;;;15.77;8.13;;;;;13.80;99205.00;;;;5053391;28;20116;-69
2023/10/02 01:38:29;;;;;;;15.75;8.40;;;;;13.80;99211.00;;;;5053981;28;20080;-68
2023/10/02 01:41:04;;;;;;;16.77;8.70;;;;;13.80;99207.00;;;;5052574;28;20046;-68
2023/10/02 01:43:44;;;;;;;16.83;8.50;;;;;13.90;99210.00;;;;5053285;28;20041;-67
2023/10/02 01:46:17;;;;;;;16.95;8.43;;;;;13.80;99207.00;;;;5035994;28;20048;-68
2023/10/02 01:48:45;;;;;;;16.80;8.80;;;;;13.70;99200.00;;;;5036043;28;20497;-68
2023/10/02 01:51:29;;;;;;;14.18;8.57;;;;;13.70;99199.00;;;;5052683;28;20057;-68
2023/10/02 01:54:04;;;;;;;17.05;8.88;;;;;13.70;99194.00;;;;5052945;28;20045;-68
2023/10/02 01:56:34;;;;;;;17.17;8.40;;;;;13.80;99191.00;;;;5052199;28;20057;-68
2023/10/02 01:59:10;;;;;;;15.45;8.60;;;;;13.90;99190.00;;;;5052496;28;20152;-72
2023/10/02 02:01:52;;;;;;;14.40;8.13;;;;;13.80;99194.00;;;;5053342;28;20490;-68
2023/10/02 02:04:33;;;;;;;19.25;7.97;;;;;13.70;99194.00;;;;5051581;28;20041;-67
2023/10/02 02:07:01;;;;;;;16.67;8.05;;;;;13.70;99195.00;;;;5052041;28;20056;-68
2023/10/02 02:09:30;;;;;;;17.33;8.30;;;;;13.60;99190.00;;;;5051690;28;20056;-69
2023/10/02 02:12:06;;;;;;;14.68;8.25;;;;;13.60;99199.00;;;;5052219;28;20049;-69
2023/10/02 02:14:41;;;;;;;15.70;8.15;;;;;13.50;99190.00;;;;5052471;28;20041;-68
2023/10/02 02:17:13;;;;;;;14.35;7.00;;;;;13.40;99189.00;;;;5052134;28;20778;-69
2023/10/02 02:19:49;;;;;;;18.42;8.68;;;;;13.40;99190.00;;;;5053226;28;20045;-68
2023/10/02 02:22:25;;;;;;;13.85;7.38;;;;;13.30;99179.00;;;;5035400;28;20095;-69
2023/10/02 02:24:58;;;;;;;16.33;8.55;;;;;13.30;99191.00;;;;5052528;28;20435;-68
2023/10/02 02:27:25;;;;;;;13.43;7.60;;;;;13.40;99184.00;;;;5051788;28;20041;-69
2023/10/02 02:29:55;;;;;;;15.60;8.77;;;;;13.40;99187.00;;;;5053071;28;20080;-69
2023/10/02 02:32:36;;;;;;;15.00;7.95;;;;;13.50;99191.00;;;;5053002;28;20029;-69
2023/10/02 02:35:06;;;;;;;12.95;7.78;;;;;13.60;99193.00;;;;5051021;28;20041;-69
2023/10/02 02:37:33;;;;;;;17.80;8.32;;;;;13.60;99191.00;;;;5051428;28;20063;-67
2023/10/02 02:40:22;;;;;;;16.13;8.02;;;;;13.50;99186.00;;;;5052673;28;20098;-65
2023/10/02 02:42:51;;;;;;;17.52;7.82;;;;;13.50;99185.00;;;;5053423;28;20045;-65
2023/10/02 02:45:28;;;;;;;14.65;7.65;;;;;13.50;99192.00;;;;5053980;28;20041;-66
2023/10/02 02:48:03;;;;;;;19.25;8.68;;;;;13.50;99192.00;;;;5053008;28;20508;-66
2023/10/02 02:50:35;;;;;;;18.45;8.27;;;;;13.40;99183.00;;;;5054339;28;20486;-66
2023/10/02 02:53:16;;;;;;;15.90;8.27;;;;;13.40;99185.00;;;;5052540;28;20059;-66
2023/10/02 02:55:43;;;;;;;17.15;8.85;;;;;13.40;99184.00;;;;5053239;28;20068;-65
2023/10/02 02:58:11;;;;;;;16.38;8.98;;;;;13.40;99190.00;;;;5053402;28;20036;-65
2023/10/02 03:00:39;;;;;;;17.38;8.85;;;;;13.40;99187.00;;;;5034775;28;20107;-66
2023/10/02 03:05:58;;;;;;;20.45;9.95;;;;;13.40;99188.00;;;;5052447;28;20048;-67
2023/10/02 03:08:37;;;;;;;17.02;8.98;;;;;13.40;99179.00;;;;5052649;28;20052;-65
2023/10/02 03:11:08;;;;;;;17.63;7.95;;;;;13.30;99188.00;;;;5052996;28;20445;-62
2023/10/02 03:13:34;;;;;;;17.20;8.77;;;;;13.30;99186.00;;;;5052375;28;20045;-68
2023/10/02 03:16:12;;;;;;;15.90;8.27;;;;;13.40;99188.00;;;;5052627;28;20044;-65
2023/10/02 03:18:43;;;;;;;17.10;8.25;;;;;13.30;99190.00;;;;5051104;28;20040;-68
2023/10/02 03:21:23;;;;;;;16.15;8.55;;;;;13.40;99186.00;;;;5051109;28;20497;-68
2023/10/02 03:23:58;;;;;;;17.15;8.25;;;;;13.40;99186.00;;;;5050126;28;20083;-67
2023/10/02 03:26:27;;;;;;;15.50;8.32;;;;;13.50;99182.00;;;;5051920;28;20099;-67
2023/10/02 03:29:01;;;;;;;16.33;8.52;;;;;13.40;99183.00;;;;5050983;28;20110;-67
2023/10/02 03:31:51;;;;;;;;;;;;;13.40;99184.00;;;;5051425;28;20079;-67
2023/10/02 03:34:29;;;;;;;13.68;8.30;;;;;13.20;99182.00;;;;5051339;28;20044;-67
2023/10/02 03:39:52;;;;;;;14.63;7.88;;;;;13.20;99181.00;;;;5051959;28;20041;-68
2023/10/02 03:42:22;;;;;;;15.88;7.90;;;;;13.30;99181.00;;;;5050776;28;20494;-67
2023/10/02 03:44:50;;;;;;;17.70;9.23;;;;;13.20;99181.00;;;;5051472;28;20037;-67
2023/10/02 03:47:18;;;;;;;17.23;8.60;;;;;13.10;99187.00;;;;5051810;28;20116;-67
2023/10/02 03:49:45;;;;;;;19.88;8.38;;;;;13.00;99188.00;;;;5050502;28;20512;-67
2023/10/02 03:52:16;;;;;;;17.08;8.32;;;;;13.00;99193.00;;;;5051696;28;20036;-67
2023/10/02 03:54:45;;;;;;;22.63;10.75;;;;;13.10;99184.00;;;;5033308;28;20045;-67
2023/10/02 04:02:47;;;;;;;18.13;8.90;;;;;13.10;99186.00;;;;5050398;28;20049;-68
2023/10/02 04:05:30;;;;;;;15.10;8.65;;;;;13.20;99178.00;;;;5049954;28;20042;-66
2023/10/02 04:08:12;;;;;;;17.13;8.95;;;;;13.20;99176.00;;;;5051640;28;20571;-68
2023/10/02 04:10:56;;;;;;;13.82;7.43;;;;;13.20;99179.00;;;;5051757;28;20116;-68
2023/10/02 04:13:34;;;;;;;13.80;7.80;;;;;13.30;99176.00;;;;5033774;28;20149;-67
2023/10/02 04:18:58;;;;;;;16.63;8.27;;;;;13.30;99178.00;;;;5051550;28;20064;-67
2023/10/02 04:21:27;;;;;;;16.67;8.30;;;;;13.30;99170.00;;;;5050394;28;20045;-68
2023/10/02 04:23:54;;;;;;;16.88;8.52;;;;;13.10;99168.00;;;;5050966;28;20112;-67
2023/10/02 04:26:22;;;;;;;15.75;8.80;;;;;12.90;99167.00;;;;5050435;28;20044;-68
2023/10/02 04:31:43;;;;;;;16.67;7.95;;;;;12.70;99164.00;;;;5051513;28;20114;-67
2023/10/02 04:36:44;;;;;;;14.47;7.63;;;;;12.70;99167.00;;;;5055353;28;20134;-68
2023/10/02 04:42:14;;;;;;;17.42;9.30;;;;;12.70;99164.00;;;;5054102;28;20057;-67
2023/10/02 04:44:46;;;;;;;19.58;9.38;;;;;12.60;99167.00;;;;5053360;28;20044;-66
2023/10/02 04:47:18;;;;;;;21.63;10.65;;;;;12.60;99162.00;;;;5055263;28;20504;-66
2023/10/02 04:52:56;;;;;;;19.88;9.77;;;;;12.70;99162.00;;;;5055403;28;20049;-66
2023/10/02 04:55:43;;;;;;;18.90;9.88;;;;;12.70;99164.00;;;;5054440;28;20079;-66
2023/10/02 04:58:14;;;;;;;17.98;8.68;;;;;12.90;99164.00;;;;5053780;28;20033;-67
2023/10/02 05:03:33;;;;;;;24.35;12.48;;;;;12.80;99159.00;;;;5055065;28;20151;-67
2023/10/02 05:05:59;;;;;;;21.05;11.63;;;;;12.80;99154.00;;;;5055349;28;20124;-66
2023/10/02 05:08:34;;;;;;;18.30;9.38;;;;;12.80;99152.00;;;;5053966;28;20051;-67
2023/10/02 05:11:07;;;;;;;21.30;10.77;;;;;12.80;99147.00;;;;5055073;28;20486;-67
2023/10/02 05:13:45;;;;;;;17.02;9.05;;;;;12.60;99150.00;;;;5053955;28;20048;-66
2023/10/02 05:16:11;;;;;;;17.02;8.98;;;;;12.60;99160.00;;;;5053304;28;20045;-65
2023/10/02 05:18:44;;;;;;;15.85;8.23;;;;;12.60;99160.00;;;;5053208;28;20103;-66
2023/10/02 05:21:16;;;;;;;17.48;9.43;;;;;12.60;99155.00;;;;5053304;28;20490;-65
2023/10/02 05:23:56;;;;;;;17.83;9.45;;;;;12.60;99154.00;;;;5053682;28;20490;-65
2023/10/02 05:26:32;;;;;;;20.38;8.77;;;;;12.60;99157.00;;;;5054409;28;20056;-65
2023/10/02 05:29:00;;;;;;;16.75;8.68;;;;;12.70;99163.00;;;;5054400;28;20072;-65
2023/10/02 05:31:28;;;;;;;20.88;9.43;;;;;12.80;99164.00;;;;5054228;28;20041;-64
2023/10/02 05:33:57;;;;;;;16.58;8.25;;;;;12.80;99165.00;;;;5053640;28;20132;-65
2023/10/02 05:36:24;;;;;;;15.77;8.52;;;;;12.80;99175.00;;;;5054178;28;20490;-65
2023/10/02 05:39:28;;;;;;;16.25;9.18;;;;;12.80;99169.00;;;;5054361;28;20619;-64
2023/10/02 05:41:56;;;;;;;16.17;8.90;;;;;12.80;99174.00;;;;5054093;28;20120;-65
2023/10/02 05:44:25;;;;;;;18.85;8.93;;;;;12.80;99176.00;;;;5051415;28;20037;-65
2023/10/02 05:47:07;;;;;;;18.50;9.52;;;;;12.80;99177.00;;;;5054819;28;20423;-65
2023/10/02 05:49:47;;;;;;;17.63;9.52;;;;;12.90;99176.00;;;;5054394;28;20065;-67
2023/10/02 05:52:18;;;;;;;16.83;8.73;;;;;13.00;99175.00;;;;5053768;28;20053;-66
2023/10/02 05:55:09;;;;;;;14.13;8.38;;;;;13.00;99176.00;;;;5053334;28;20060;-65
2023/10/02 05:57:36;;;;;;;14.38;8.18;;;;;13.00;99179.00;;;;5053747;28;20052;-65
2023/10/02 06:00:06;;;;;;;18.77;8.70;;;;;13.00;99180.00;;;;5053631;28;20049;-66
2023/10/02 06:02:33;;;;;;;17.90;8.80;;;;;13.00;99180.00;;;;5053768;28;20053;-65
2023/10/02 06:05:11;;;;;;;17.90;9.20;;;;;13.10;99190.00;;;;5052846;28;20059;-66
2023/10/02 06:07:46;;;;;;;18.75;8.50;;;;;13.10;99189.00;;;;5053463;28;20041;-65
2023/10/02 06:10:25;;;;;;;;;;;;;13.30;99194.00;;;;5054008;28;20041;-66
2023/10/02 06:13:08;;;;;;;18.77;9.10;;;;;13.30;99192.00;;;;5052345;28;19921;-65
2023/10/02 06:15:48;;;;;;;21.33;10.95;;;;;13.20;99192.00;;;;5053021;28;20486;-65
2023/10/02 06:18:24;;;;;;;17.88;8.95;;;;;13.20;99199.00;;;;5052024;28;20127;-65
2023/10/02 06:21:03;;;;;;;16.67;8.45;;;;;13.30;99192.00;;;;5051946;28;20541;-65
2023/10/02 06:23:45;;;;;;;19.75;8.65;;;;;13.30;99197.00;;;;5052730;28;20044;-68
2023/10/02 06:26:12;;;;;;;15.27;8.30;;;;;13.30;99194.00;;;;5035446;28;20048;-65
2023/10/02 06:28:39;;;;;;;18.83;9.07;;;;;13.40;99192.00;;;;5052929;28;20600;-66
2023/10/02 06:31:06;;;;;;;17.00;8.85;;;;;13.50;99193.00;;;;5053001;28;20562;-65
2023/10/02 06:33:36;;;;;;;19.17;8.43;;;;;13.50;99188.00;;;;5052363;28;20049;-66
2023/10/02 06:36:07;;;;;;;15.63;8.00;;;;;13.50;99187.00;;;;5051617;28;20056;-66
2023/10/02 06:38:35;;;;;;;16.85;8.50;;;;;13.60;99188.00;;;;5051594;28;20075;-67
2023/10/02 06:41:09;;;;;;;18.23;8.43;;;;;13.60;99186.00;;;;5052880;28;20045;-66
2023/10/02 06:43:36;;;;;;;17.42;8.63;;;;;13.80;99189.00;;;;5052341;28;20056;-66
2023/10/02 06:46:19;;;;;;;14.43;8.40;;;;;13.90;99200.00;;;;5035125;28;20159;-66
2023/10/02 06:48:46;;;;;;;14.45;7.53;;;;;13.90;99187.00;;;;5052673;28;20091;-66
2023/10/02 06:51:13;;;;;;;15.52;8.20;;;;;14.00;99191.00;;;;5052795;28;20048;-67
2023/10/02 06:53:41;;;;;;;17.08;7.82;;;;;14.10;99191.00;;;;5052271;28;20041;-66
2023/10/02 06:56:11;;;;;;;13.30;7.53;;;;;14.10;99184.00;;;;5034873;28;20049;-66
2023/10/02 06:58:54;;;;;;;15.98;7.95;;;;;14.20;99190.00;;;;5051516;28;20052;-66
2023/10/02 07:01:26;;;;;;;15.55;8.13;;;;;14.10;99182.00;;;;5051700;28;20045;-66
2023/10/02 07:03:56;;;;;;;15.05;7.90;;;;;14.10;99189.00;;;;5051046;28;20044;-67
2023/10/02 07:06:28;;;;;;;14.55;7.82;;;;;14.20;99194.00;;;;5051392;28;20044;-66
2023/10/02 07:09:10;;;;;;;16.95;9.00;;;;;14.20;99190.00;;;;5051640;28;20048;-66
2023/10/02 07:11:44;;;;;;;15.65;8.90;;;;;14.30;99191.00;;;;5051456;28;20049;-67
2023/10/02 07:14:12;;;;;;;18.00;10.90;;;;;14.50;99189.00;;;;5051161;28;20066;-66
2023/10/02 07:16:39;;;;;;;18.60;9.98;;;;;14.60;99192.00;;;;5051592;28;20511;-66
2023/10/02 07:19:06;;;;;;;16.08;9.23;;;;;14.60;99184.00;;;;5052229;28;20503;-67
2023/10/02 07:21:35;;;;;;;15.15;8.50;;;;;14.70;99192.00;;;;5053611;28;20552;-67
2023/10/02 07:24:03;;;;;;;14.85;8.55;;;;;14.90;99206.00;;;;5052266;28;20044;-65
2023/10/02 07:26:49;;;;;;;14.55;9.43;;;;;15.00;99202.00;;;;5054685;28;20113;-66
2023/10/02 07:29:17;;;;;;;20.77;10.88;;;;;15.10;99202.00;;;;5053567;28;20048;-66
2023/10/02 07:31:45;;;;;;;17.80;9.65;;;;;15.30;99207.00;;;;5053114;28;20075;-67
2023/10/02 07:34:15;;;;;;;16.50;9.15;;;;;15.50;99202.00;;;;5054311;28;20497;-66
2023/10/02 07:36:45;;;;;;;17.27;9.50;;;;;15.60;99201.00;;;;5053866;28;20516;-67
2023/10/02 07:42:00;;;;;;;17.85;8.73;;;;;15.90;99191.00;;;;5059472;28;20143;-67
2023/10/02 07:44:36;;;;;;;18.58;9.35;;;;;16.00;99197.00;;;;5051053;28;20107;-66
2023/10/02 07:47:10;;;;;;;16.33;8.70;;;;;16.20;99193.00;;;;5053115;28;20048;-67
2023/10/02 07:49:44;;;;;;;17.73;9.93;;;;;16.30;99203.00;;;;5051459;28;20053;-67
2023/10/02 07:52:11;;;;;;;17.17;9.23;;;;;16.50;99206.00;;;;5051171;28;20051;-67
2023/10/02 07:54:44;;;;;;;15.13;8.75;;;;;16.60;99196.00;;;;5051373;28;20072;-68
2023/10/02 07:57:13;;;;;;;16.23;9.18;;;;;16.70;99198.00;;;;5052119;28;20044;-69
2023/10/02 07:59:43;;;;;;;20.10;9.20;;;;;16.90;99201.00;;;;5051953;28;20493;-67
2023/10/02 08:02:23;;;;;;;18.10;9.13;;;;;17.00;99199.00;;;;5052078;28;20049;-70
2023/10/02 08:04:51;;;;;;;17.35;9.75;;;;;17.10;99200.00;;;;5051566;28;20104;-67
2023/10/02 08:07:19;;;;;;;20.15;9.63;;;;;17.10;99202.00;;;;5053248;28;20516;-67
2023/10/02 08:10:05;;;;;;;18.63;9.52;;;;;17.30;99205.00;;;;5056378;28;20387;-67
2023/10/02 08:12:35;;;;;;;19.55;10.75;;;;;17.40;99202.00;;;;5056055;28;20121;-69
2023/10/02 08:18:16;;;;;;;16.45;9.13;;;;;17.60;99198.00;;;;5053396;28;20255;-67
2023/10/02 08:20:45;;;;;;;16.73;9.52;;;;;17.80;99196.00;;;;5055459;28;20545;-67
2023/10/02 08:23:22;;;;;;;19.02;9.48;;;;;17.90;99194.00;;;;5057702;28;20055;-67
2023/10/02 08:26:02;;;;;;;16.85;8.98;;;;;18.00;99204.00;;;;5055805;28;20045;-67
2023/10/02 08:28:33;;;;;;;15.35;8.60;;;;;18.10;99198.00;;;;5055462;28;20124;-65
2023/10/02 08:31:01;;;;;;;23.25;9.63;;;;;18.20;99197.00;;;;5054663;28;20095;-66
2023/10/02 08:33:33;;;;;;;19.15;9.48;;;;;18.40;99201.00;;;;5055022;28;20045;-68
2023/10/02 08:36:19;;;;;;;16.98;8.85;;;;;18.60;99208.00;;;;5054540;28;20052;-64
2023/10/02 08:38:49;;;;;;;12.15;7.38;;;;;18.60;99199.00;;;;5055677;28;20123;-65
2023/10/02 08:41:19;;;;;;;17.38;8.65;;;;;18.80;99213.00;;;;5057157;28;20048;-65
2023/10/02 08:43:47;;;;;;;16.98;7.88;;;;;19.00;99208.00;;;;5055663;28;20096;-64
2023/10/02 08:46:21;;;;;;;18.63;9.05;;;;;19.10;99199.00;;;;5056165;28;20087;-64
2023/10/02 08:48:54;;;;;;;17.83;9.45;;;;;19.20;99198.00;;;;5055625;28;20106;-65
2023/10/02 08:51:32;;;;;;;34.80;19.83;;;;;19.30;99195.00;;;;5055275;28;20052;-65
2023/10/02 08:54:00;;;;;;;16.40;9.18;;;;;19.40;99193.00;;;;5053100;28;20053;-67
2023/10/02 08:56:40;;;;;;;15.90;8.65;;;;;19.50;99191.00;;;;5055124;28;20033;-66
2023/10/02 08:59:18;;;;;;;14.88;8.13;;;;;19.70;99187.00;;;;5039120;28;20049;-66
2023/10/02 09:01:49;;;;;;;15.48;8.32;;;;;19.70;99185.00;;;;5054656;28;20401;-66
2023/10/02 09:04:28;;;;;;;17.75;8.45;;;;;19.90;99189.00;;;;5053159;28;20044;-66
2023/10/02 09:06:58;;;;;;;16.98;9.80;;;;;19.90;99195.00;;;;5054465;28;20418;-66
2023/10/02 09:09:35;;;;;;;14.35;7.68;;;;;20.00;99195.00;;;;5054653;28;20448;-66
2023/10/02 09:12:03;;;;;;;16.80;9.30;;;;;20.00;99194.00;;;;5054685;28;20072;-66
2023/10/02 09:19:51;;;;;;;15.80;8.48;;;;;20.40;99206.00;;;;5053071;28;20123;-66
2023/10/02 09:22:20;;;;;;;15.45;8.07;;;;;20.60;99203.00;;;;5054366;28;20087;-66
2023/10/02 09:25:26;;;;;;;15.77;8.10;;;;;20.80;99200.00;;;;5053616;28;20121;-65
2023/10/02 09:27:58;;;;;;;16.08;8.18;;;;;20.90;99201.00;;;;5054056;28;20041;-65
2023/10/02 09:33:37;;;;;;;14.38;8.18;;;;;21.20;99196.00;;;;5052937;28;20049;-66
2023/10/02 09:36:34;;;;;;;15.95;8.23;;;;;21.30;99190.00;;;;5053977;28;20044;-66
2023/10/02 09:39:36;;;;;;;19.17;8.43;;;;;21.50;99187.00;;;;5053248;28;20078;-65
2023/10/02 09:42:07;;;;;;;20.42;10.27;;;;;21.60;99189.00;;;;5054430;28;20416;-64
2023/10/02 09:44:42;;;;;;;22.05;8.98;;;;;21.70;99173.00;;;;5052430;28;20151;-64
2023/10/02 09:47:09;;;;;;;17.98;9.23;;;;;21.80;99175.00;;;;5053003;28;20052;-65
2023/10/02 09:50:10;;;;;;;15.60;8.30;;;;;22.00;99181.00;;;;5052817;28;20052;-65
2023/10/02 09:52:58;;;;;;;13.73;7.63;;;;;22.10;99178.00;;;;5036173;28;20045;-64
2023/10/02 09:55:47;;;;;;;15.45;8.20;;;;;22.20;99184.00;;;;5053696;28;20486;-65
2023/10/02 09:58:34;;;;;;;14.48;8.05;;;;;22.30;99176.00;;;;5052488;28;20049;-64
2023/10/02 10:03:51;;;;;;;18.45;9.80;;;;;22.50;99168.00;;;;5052907;28;20072;-67
2023/10/02 10:06:19;;;;;;;18.58;9.30;;;;;22.70;99173.00;;;;5053510;28;20041;-64
2023/10/02 10:11:43;;;;;;;14.90;8.23;;;;;22.90;99170.00;;;;5052232;28;20139;-65
2023/10/02 10:14:37;;;;;;;18.05;8.77;;;;;23.10;99165.00;;;;5052760;28;20052;-65
2023/10/02 10:17:16;;;;;;;17.05;8.73;;;;;23.10;99168.00;;;;5053166;28;20509;-66
2023/10/02 10:19:48;;;;;;;17.60;9.52;;;;;23.30;99154.00;;;;5053452;28;20037;-66
2023/10/02 10:22:39;;;;;;;16.40;9.30;;;;;23.40;99155.00;;;;5052067;28;20135;-67
2023/10/02 10:25:32;;;;;;;15.90;8.63;;;;;23.50;99154.00;;;;5053454;28;20032;-64
2023/10/02 10:28:08;;;;;;;17.42;8.65;;;;;23.60;99147.00;;;;5054062;28;20048;-66
2023/10/02 10:30:39;;;;;;;19.13;9.63;;;;;23.70;99146.00;;;;5051579;28;20041;-67
2023/10/02 10:35:48;;;;;;;19.70;9.07;;;;;23.80;99136.00;;;;5052201;28;20051;-66
2023/10/02 10:38:22;;;;;;;19.15;9.57;;;;;23.90;99140.00;;;;5053070;28;20045;-66
2023/10/02 10:40:54;;;;;;;16.00;9.70;;;;;24.00;99134.00;;;;5052913;28;20048;-67
2023/10/02 10:46:12;;;;;;;17.45;10.02;;;;;24.20;99133.00;;;;5051717;28;20090;-66
2023/10/02 10:48:40;;;;;;;18.70;9.98;;;;;24.30;99144.00;;;;5052689;28;20486;-66
2023/10/02 10:51:20;;;;;;;21.33;12.98;;;;;24.50;99142.00;;;;5051437;28;20490;-66
2023/10/02 10:53:52;;;;;;;17.92;10.60;;;;;24.60;99135.00;;;;5052114;28;20037;-66
2023/10/02 10:56:22;;;;;;;14.57;9.18;;;;;24.60;99139.00;;;;5052578;28;20041;-66
2023/10/02 10:58:54;;;;;;;21.75;10.50;;;;;24.70;99130.00;;;;5051144;28;20139;-66
2023/10/02 11:01:21;;;;;;;17.40;9.23;;;;;24.90;99135.00;;;;5051056;28;20081;-66
2023/10/02 11:03:58;;;;;;;15.88;9.18;;;;;25.00;99133.00;;;;5051798;28;20496;-66
2023/10/02 11:06:26;;;;;;;17.77;10.13;;;;;25.10;99124.00;;;;5051458;28;20124;-66
2023/10/02 11:09:11;;;;;;;17.17;9.40;;;;;25.30;99130.00;;;;5052438;28;20677;-66
2023/10/02 11:11:49;;;;;;;18.88;10.98;;;;;25.30;99126.00;;;;5051003;28;20099;-67
2023/10/02 11:14:33;;;;;;;20.58;10.88;;;;;25.50;99128.00;;;;5051744;28;20055;-67
2023/10/02 11:17:04;;;;;;;18.38;10.48;;;;;25.60;99127.00;;;;5051040;28;20049;-67
2023/10/02 11:22:20;;;;;;;20.92;11.38;;;;;25.80;99117.00;;;;5052466;28;20391;-67
2023/10/02 11:25:20;;;;;;;17.50;10.35;;;;;25.90;99106.00;;;;5050916;28;20138;-67
2023/10/02 11:27:57;;;;;;;17.55;9.63;;;;;26.00;99105.00;;;;5052431;28;20045;-66
2023/10/02 11:30:31;;;;;;;19.92;10.07;;;;;26.10;99105.00;;;;5051038;28;20128;-66
2023/10/02 11:33:04;;;;;;;16.13;9.82;;;;;26.20;99099.00;;;;5052249;28;20095;-66
2023/10/02 11:35:39;;;;;;;18.65;10.13;;;;;26.30;99098.00;;;;5050185;28;20513;-67
2023/10/02 11:38:07;;;;;;;17.50;11.15;;;;;26.40;99087.00;;;;5052473;28;20040;-67
2023/10/02 11:40:35;;;;;;;19.45;10.65;;;;;26.40;99083.00;;;;5052738;28;20048;-67
2023/10/02 11:43:02;;;;;;;19.98;11.20;;;;;26.60;99085.00;;;;5051717;28;20136;-66
2023/10/02 11:45:29;;;;;;;19.80;11.07;;;;;26.70;99079.00;;;;5053923;28;20110;-67
2023/10/02 11:47:56;;;;;;;17.52;9.88;;;;;26.80;99080.00;;;;5037464;28;20052;-65
2023/10/02 11:50:23;;;;;;;19.50;10.80;;;;;26.80;99076.00;;;;5062757;28;20045;-66
2023/10/02 11:52:51;;;;;;;19.25;11.23;;;;;26.80;99074.00;;;;5042677;28;20506;-66
2023/10/02 11:55:18;;;;;;;18.98;10.93;;;;;26.80;99072.00;;;;5060013;28;20067;-67
2023/10/02 11:57:51;;;;;;;22.48;11.68;;;;;26.90;99068.00;;;;5069283;28;20044;-67
2023/10/02 12:00:20;;;;;;;22.83;12.70;;;;;27.10;99061.00;;;;5063927;28;20682;-67
2023/10/02 12:02:49;;;;;;;22.48;12.02;;;;;27.20;99065.00;;;;5065422;28;20102;-67
2023/10/02 12:05:19;;;;;;;23.48;12.77;;;;;27.30;99056.00;;;;5060023;28;20140;-66
2023/10/02 12:07:48;;;;;;;21.52;12.20;;;;;27.40;99052.00;;;;5060877;28;20048;-67
2023/10/02 12:10:15;;;;;;;19.77;11.43;;;;;27.50;99057.00;;;;5065399;28;20079;-67
2023/10/02 12:12:45;;;;;;;21.48;12.70;;;;;27.50;99057.00;;;;5060504;28;20041;-67
2023/10/02 12:15:14;;;;;;;21.05;11.70;;;;;27.70;99049.00;;;;5058441;28;20102;-67
2023/10/02 12:17:44;;;;;;;21.42;11.98;;;;;27.70;99049.00;;;;5053150;28;20045;-67
2023/10/02 12:20:16;;;;;;;22.02;12.38;;;;;27.80;99055.00;;;;5051438;28;20045;-67
2023/10/02 12:22:46;;;;;;;22.00;11.95;;;;;27.80;99057.00;;;;5053322;28;20045;-67
2023/10/02 12:25:14;;;;;;;23.00;12.63;;;;;27.80;99052.00;;;;5051190;28;20049;-67
2023/10/02 12:27:41;;;;;;;21.60;11.70;;;;;27.80;99044.00;;;;5052283;28;20041;-67
2023/10/02 12:30:11;;;;;;;24.75;12.45;;;;;27.80;99052.00;;;;5052148;28;20045;-67
2023/10/02 12:32:39;;;;;;;21.10;11.90;;;;;27.80;99036.00;;;;5051553;28;20045;-67
2023/10/02 12:35:06;;;;;;;20.13;11.48;;;;;27.90;99037.00;;;;5049784;28;20481;-66
2023/10/02 12:37:33;;;;;;;22.48;12.60;;;;;27.90;99028.00;;;;5055238;28;20051;-67
2023/10/02 12:40:00;;;;;;;23.05;12.43;;;;;27.90;99025.00;;;;5053182;28;20052;-65
2023/10/02 12:42:26;;;;;;;20.17;11.77;;;;;27.90;99023.00;;;;5050454;28;20486;-67
2023/10/02 12:44:54;;;;;;;22.92;12.98;;;;;27.90;99027.00;;;;5050916;28;20065;-67
2023/10/02 12:47:21;;;;;;;22.10;12.88;;;;;27.90;99020.00;;;;5050247;28;20055;-66
2023/10/02 12:49:54;;;;;;;32.00;12.40;;;;;27.90;99016.00;;;;5051386;28;20115;-67
2023/10/02 12:52:23;;;;;;;21.35;12.10;;;;;27.90;99019.00;;;;5051954;28;20102;-67
2023/10/02 12:54:49;;;;;;;20.80;11.25;;;;;28.00;99021.00;;;;5053074;28;20077;-67
2023/10/02 12:57:16;;;;;;;22.88;12.48;;;;;28.10;99011.00;;;;5054952;28;20060;-68
2023/10/02 12:59:43;;;;;;;20.52;11.85;;;;;28.20;99010.00;;;;5054993;28;20041;-67
2023/10/02 13:02:10;;;;;;;26.65;13.98;;;;;28.30;99004.00;;;;5054718;28;20073;-67
2023/10/02 13:04:37;;;;;;;24.85;13.93;;;;;28.40;99009.00;;;;5054173;28;20076;-67
2023/10/02 13:07:05;;;;;;;25.35;13.40;;;;;28.40;99001.00;;;;5054598;28;20036;-67
2023/10/02 13:09:32;;;;;;;22.98;12.50;;;;;28.40;98997.00;;;;5054526;28;20052;-67
2023/10/02 13:12:00;;;;;;;22.08;12.85;;;;;28.40;98998.00;;;;5054478;28;20493;-66
2023/10/02 13:14:27;;;;;;;23.30;13.75;;;;;28.50;98996.00;;;;5052731;28;20045;-67
2023/10/02 13:16:54;;;;;;;23.45;12.35;;;;;28.60;99000.00;;;;5054309;28;20481;-66
2023/10/02 13:19:21;;;;;;;25.33;13.30;;;;;28.70;99000.00;;;;5054496;28;20044;-66
2023/10/02 13:21:52;;;;;;;25.17;13.45;;;;;28.60;98989.00;;;;5053245;28;20098;-67
2023/10/02 13:24:23;;;;;;;26.88;12.93;;;;;28.70;98990.00;;;;5054003;28;20099;-68
2023/10/02 13:26:50;;;;;;;19.75;12.07;;;;;28.80;98985.00;;;;5036854;28;20041;-67
2023/10/02 13:29:20;;;;;;;20.45;12.00;;;;;28.80;98978.00;;;;5053207;28;20045;-67
2023/10/02 13:31:47;;;;;;;21.85;12.27;;;;;28.80;98979.00;;;;5054563;28;20406;-67
2023/10/02 13:34:14;;;;;;;24.08;12.05;;;;;28.80;98972.00;;;;5052540;28;20402;-67
2023/10/02 13:36:41;;;;;;;25.65;12.85;;;;;28.80;98966.00;;;;5053033;28;20045;-68